Time;durP1;ratioP1;P1;durP2;ratioP2;P2;SDS_P1;SDS_P2;PMS_P1;PMS_P2;Temp;Humidity;BMP_temperature;BMP_pressure;BME280_temperature;BME280_humidity;BME280_pressure;Samples;Min_cycle;Max_cycle;Signal;HPM_P1;HPM_P2
2022/06/21 00:01:10;;;;;;;9.57;4.00;;;;;;;-143.10;100.00;51006.75;4853413;29;20141;-67
2022/06/21 00:03:52;;;;;;;8.88;4.05;;;;;;;-143.10;100.00;50998.94;4838625;29;20117;-67
2022/06/21 00:06:41;;;;;;;7.50;3.95;;;;;;;-143.10;100.00;50963.69;4848836;29;20069;-67
2022/06/21 00:09:24;;;;;;;4.50;3.97;;;;;;;-143.10;100.00;50938.25;4847895;29;20139;-67
2022/06/21 00:12:20;;;;;;;5.47;3.90;;;;;;;-143.10;100.00;50955.88;4855854;29;20072;-67
2022/06/21 00:15:10;;;;;;;8.77;5.57;;;;;;;-143.10;100.00;50989.16;4852933;29;20049;-67
2022/06/21 00:17:59;;;;;;;8.27;5.82;;;;;;;-143.10;100.00;50967.59;4853680;29;20081;-67
2022/06/21 00:20:41;;;;;;;15.13;8.25;;;;;;;-143.10;100.00;50967.59;4852090;29;20065;-66
2022/06/21 00:23:35;;;;;;;19.88;10.45;;;;;;;-143.10;100.00;50977.41;4852967;29;20054;-67
2022/06/21 00:26:27;;;;;;;22.42;10.10;;;;;;;-143.10;100.00;50963.69;4846269;29;20057;-67
2022/06/21 00:29:17;;;;;;;18.85;10.35;;;;;;;-143.10;99.58;50979.34;4838691;29;20541;-67
2022/06/21 00:32:05;;;;;;;29.85;13.45;;;;;;;-143.10;99.46;50983.28;4851989;29;20089;-67
2022/06/21 00:35:00;;;;;;;34.03;16.10;;;;;;;-143.10;99.55;50959.78;4851955;29;20072;-67
2022/06/21 00:37:35;;;;;;;34.15;17.48;;;;;;;-143.10;100.00;50959.78;4852820;29;20053;-67
2022/06/21 00:40:32;;;;;;;27.27;14.57;;;;;;;-143.10;100.00;50977.41;4852871;29;20061;-67
2022/06/21 00:43:35;;;;;;;26.40;13.73;;;;;;;-143.10;100.00;50963.69;4852867;29;20065;-67
2022/06/21 00:46:49;;;;;;;19.27;10.18;;;;;;;-143.10;100.00;50950.00;4852716;29;20412;-67
2022/06/21 00:49:42;;;;;;;12.75;8.15;;;;;;;-143.10;100.00;50998.94;4870469;29;20745;-67
2022/06/21 00:52:45;;;;;;;13.93;7.28;;;;;;;-143.10;100.00;51002.84;4875143;29;20053;-67
2022/06/21 00:56:09;;;;;;;11.20;7.35;;;;;;;-143.10;100.00;50940.19;4875246;29;20132;-67
2022/06/21 00:58:51;;;;;;;10.10;7.25;;;;;;;-143.10;100.00;50963.69;4856963;29;20476;-68
2022/06/21 01:01:40;;;;;;;19.00;7.93;;;;;;;-143.10;100.00;50979.34;4874301;29;20052;-67
2022/06/21 01:04:40;;;;;;;15.32;8.80;;;;;;;-143.10;100.00;50996.97;4874774;29;20137;-69
2022/06/21 01:07:22;;;;;;;18.53;11.50;;;;;;;-143.10;100.00;50993.06;4874715;29;20056;-68
2022/06/21 01:10:23;;;;;;;32.00;13.00;;;;;;;-143.10;100.00;51045.91;4887479;29;20296;-69
2022/06/21 01:13:25;;;;;;;20.50;11.50;;;;;;;-143.10;100.00;50950.00;4877128;29;20049;-69
2022/06/21 01:16:21;;;;;;;16.15;10.95;;;;;;;-143.10;100.00;50928.44;4874222;29;20108;-69
2022/06/21 01:19:33;;;;;;;24.63;11.50;;;;;;;-143.10;100.00;50967.59;4873519;29;20072;-68
2022/06/21 01:22:50;;;;;;;19.63;11.75;;;;;;;-143.10;100.00;50995.03;4874164;29;20053;-69
2022/06/21 01:25:56;;;;;;;20.95;12.10;;;;;;;-143.10;100.00;50983.28;4875457;29;20049;-67
2022/06/21 01:28:46;;;;;;;18.92;11.48;;;;;;;-143.10;100.00;50987.19;4874994;29;20041;-68
2022/06/21 01:31:30;;;;;;;18.48;12.60;;;;;;;-143.10;100.00;51022.44;4874527;29;20057;-68
2022/06/21 01:34:26;;;;;;;32.25;16.67;;;;;;;-143.10;100.00;50975.44;4874089;29;20080;-68
2022/06/21 01:37:27;;;;;;;19.70;12.13;;;;;;;-143.10;100.00;50993.06;4888807;29;20065;-68
2022/06/21 01:40:07;;;;;;;23.27;12.77;;;;;;;-143.10;100.00;50987.19;4855570;29;20049;-69
2022/06/21 01:43:09;;;;;;;25.38;13.75;;;;;;;-143.10;100.00;50995.03;4855808;29;20049;-68
2022/06/21 01:45:58;;;;;;;25.02;13.50;;;;;;;-143.10;100.00;50987.19;4855732;29;20068;-68
2022/06/21 01:48:52;;;;;;;23.60;14.38;;;;;;;-143.10;100.00;50969.56;4855662;29;20061;-68
2022/06/21 01:51:39;;;;;;;28.63;15.55;;;;;;;-143.10;100.00;50977.41;4855164;29;20054;-68
2022/06/21 01:54:33;;;;;;;26.43;15.40;;;;;;;-143.10;100.00;51018.50;4854786;29;20836;-69
2022/06/21 01:57:19;;;;;;;26.08;15.05;;;;;;;-143.10;100.00;51014.59;4854123;29;20564;-68
2022/06/21 02:00:15;;;;;;;27.35;14.50;;;;;;;-143.10;100.00;50981.31;4855560;29;20053;-68
2022/06/21 02:02:57;;;;;;;22.02;13.65;;;;;;;-143.10;100.00;50987.19;4855266;29;20482;-68
2022/06/21 02:06:03;;;;;;;26.13;15.25;;;;;;;-143.10;100.00;51036.13;4855376;29;20049;-68
2022/06/21 02:09:05;;;;;;;24.58;15.40;;;;;;;-143.10;100.00;51006.75;4871713;29;20132;-68
2022/06/21 02:12:04;;;;;;;30.92;16.30;;;;;;;-143.10;100.00;51008.72;4872507;29;20600;-68
2022/06/21 02:14:52;;;;;;;27.98;15.95;;;;;;;-143.10;100.00;50991.09;4874193;29;20045;-68
2022/06/21 02:17:45;;;;;;;30.90;16.55;;;;;;;-143.10;100.00;50985.22;4866156;29;20049;-68
2022/06/21 02:20:44;;;;;;;29.03;16.93;;;;;;;-143.10;100.00;50998.94;4836405;29;20128;-68
2022/06/21 02:23:26;;;;;;;25.50;13.82;;;;;;;-143.10;100.00;50975.44;4850395;29;20057;-69
2022/06/21 02:26:17;;;;;;;17.45;10.20;;;;;;;-143.10;100.00;50987.19;4849834;29;20502;-68
2022/06/21 02:29:00;;;;;;;15.27;9.23;;;;;;;-143.10;100.00;51000.91;4847866;29;20050;-69
2022/06/21 02:31:50;;;;;;;13.40;8.00;;;;;;;-143.10;100.00;50987.19;4835147;29;20118;-68
2022/06/21 02:34:38;;;;;;;13.43;8.88;;;;;;;-143.10;100.00;51014.59;4834998;29;20050;-68
2022/06/21 02:37:30;;;;;;;16.27;9.55;;;;;;;-143.10;100.00;51006.75;4847304;29;20069;-68
2022/06/21 02:40:23;;;;;;;14.07;8.52;;;;;;;-143.10;100.00;50987.19;4835076;29;20145;-69
2022/06/21 02:43:35;;;;;;;15.18;8.00;;;;;;;-143.10;100.00;50991.09;4834749;29;20054;-68
2022/06/21 02:46:29;;;;;;;12.60;7.38;;;;;;;-143.10;100.00;51016.56;4834802;29;20053;-68
2022/06/21 02:49:51;;;;;;;12.63;7.97;;;;;;;-143.10;100.00;51006.75;4849348;29;20114;-68
2022/06/21 02:52:42;;;;;;;12.07;7.63;;;;;;;-143.10;100.00;51038.09;4848643;29;20128;-68
2022/06/21 02:55:42;;;;;;;14.48;8.32;;;;;;;-143.10;100.00;51026.34;4852942;29;20505;-68
2022/06/21 02:58:52;;;;;;;13.52;9.02;;;;;;;-143.10;100.00;50979.34;4852883;29;20053;-69
2022/06/21 03:01:53;;;;;;;14.45;9.93;;;;;;;-143.10;100.00;51004.81;4866340;29;20064;-69
2022/06/21 03:04:53;;;;;;;13.63;9.52;;;;;;;-143.10;100.00;51014.59;4853319;29;20114;-68
2022/06/21 03:07:43;;;;;;;14.63;10.17;;;;;;;-143.10;100.00;51032.22;4851784;29;20053;-68
2022/06/21 03:10:37;;;;;;;14.73;9.65;;;;;;;-143.10;100.00;50975.44;4851506;29;20281;-68
2022/06/21 03:13:29;;;;;;;13.10;9.95;;;;;;;-143.10;100.00;51000.91;4852549;29;20588;-68
2022/06/21 03:16:25;;;;;;;17.80;9.77;;;;;;;-143.10;100.00;50991.09;4851538;29;20145;-68
2022/06/21 03:19:21;;;;;;;17.90;10.43;;;;;;;-143.10;100.00;50998.94;4852297;29;20045;-67
2022/06/21 03:22:23;;;;;;;14.20;10.30;;;;;;;-143.10;100.00;50993.06;4852898;29;20064;-68
2022/06/21 03:25:16;;;;;;;14.10;10.73;;;;;;;-143.10;100.00;51014.59;4853439;29;20486;-68
2022/06/21 03:28:08;;;;;;;20.88;11.88;;;;;;;-143.10;100.00;50979.34;4853066;29;20569;-68
2022/06/21 03:31:31;;;;;;;16.40;12.15;;;;;;;-143.10;100.00;51004.81;4852680;29;20065;-68
2022/06/21 03:34:23;;;;;;;17.70;12.90;;;;;;;-143.10;100.00;51030.25;4848019;29;20061;-67
2022/06/21 03:37:05;;;;;;;18.92;12.65;;;;;;;-143.10;100.00;50967.59;4853045;29;20133;-68
2022/06/21 03:43:30;;;;;;;17.42;13.90;;;;;;;-143.10;100.00;51040.03;4852498;29;20137;-68
2022/06/21 03:46:45;;;;;;;19.35;13.23;;;;;;;-143.10;100.00;51030.25;4851624;29;20061;-67
2022/06/21 03:50:07;;;;;;;19.45;13.30;;;;;;;-143.10;100.00;51006.75;4852181;29;20053;-68
2022/06/21 03:52:58;;;;;;;17.00;13.65;;;;;;;-143.10;100.00;51012.63;4852165;29;20144;-69
2022/06/21 03:56:32;;;;;;;18.88;14.32;;;;;;;-143.10;100.00;51055.72;4838405;29;20077;-68
2022/06/21 03:59:45;;;;;;;20.70;14.23;;;;;;;-143.10;100.00;51014.59;4851808;29;20057;-67
2022/06/21 04:02:51;;;;;;;18.83;13.52;;;;;;;-143.10;100.00;51045.91;4835435;29;20430;-67
2022/06/21 04:05:39;;;;;;;20.65;14.40;;;;;;;-143.10;100.00;51055.72;4852122;29;20176;-67
2022/06/21 04:08:40;;;;;;;20.45;14.63;;;;;;;-143.10;100.00;51010.69;4866245;29;20561;-67
2022/06/21 04:11:55;;;;;;;17.88;13.50;;;;;;;-143.10;100.00;51002.84;4835212;29;20102;-67
2022/06/21 04:14:49;;;;;;;18.95;12.73;;;;;;;-143.10;100.00;50967.59;4852734;29;20071;-67
2022/06/21 04:18:11;;;;;;;22.20;14.48;;;;;;;-143.10;100.00;51049.84;4849139;29;20113;-68
2022/06/21 04:20:57;;;;;;;21.75;14.07;;;;;;;-143.10;100.00;51038.09;4850857;29;20064;-68
2022/06/21 04:23:58;;;;;;;27.08;12.95;;;;;;;-143.10;100.00;51028.31;4864292;29;20070;-68
2022/06/21 04:26:53;;;;;;;17.77;11.57;;;;;;;-143.10;100.00;51036.13;4855789;29;20050;-68
2022/06/21 04:29:58;;;;;;;16.90;11.23;;;;;;;-143.10;100.00;51008.72;4855654;29;20431;-68
2022/06/21 04:33:20;;;;;;;13.57;10.43;;;;;;;-143.10;100.00;51000.91;4855671;29;20375;-68
2022/06/21 04:36:13;;;;;;;15.00;11.82;;;;;;;-143.10;100.00;51012.63;4843220;29;20053;-68
2022/06/21 04:39:09;;;;;;;14.15;10.70;;;;;;;-143.10;100.00;50985.22;4855403;29;20045;-68
2022/06/21 04:41:53;;;;;;;15.02;10.57;;;;;;;-143.10;100.00;51016.56;4855618;29;20046;-68
2022/06/21 04:44:56;;;;;;;17.15;10.48;;;;;;;-143.10;100.00;51002.84;4855563;29;20109;-68
2022/06/21 04:47:48;;;;;;;13.35;8.63;;;;;;;-143.10;100.00;51038.09;4855558;29;20409;-68
2022/06/21 04:50:54;;;;;;;10.85;8.93;;;;;;;-143.10;100.00;50993.06;4855510;29;20128;-68
2022/06/21 04:53:44;;;;;;;11.25;8.73;;;;;;;-143.10;100.00;51034.19;4849481;29;20053;-68
2022/06/21 04:56:46;;;;;;;14.77;8.50;;;;;;;-143.10;100.00;51002.84;4854916;29;20053;-68
2022/06/21 04:59:34;;;;;;;12.75;8.30;;;;;;;-143.10;100.00;50979.34;4836057;29;20061;-66
2022/06/21 05:02:43;;;;;;;11.00;8.15;;;;;;;-143.10;100.00;51022.44;4836117;29;20082;-67
2022/06/21 05:05:37;;;;;;;13.90;8.43;;;;;;;-143.10;100.00;51010.69;4816865;29;20113;-68
2022/06/21 05:08:28;;;;;;;13.75;8.35;;;;;;;-143.10;100.00;50991.09;4836589;29;20072;-68
2022/06/21 05:11:17;;;;;;;16.65;8.93;;;;;;;-143.10;100.00;51024.38;4835123;29;20117;-67
2022/06/21 05:14:08;;;;;;;11.95;9.30;;;;;;;-143.10;100.00;51018.50;4836702;29;20495;-67
2022/06/21 05:16:57;;;;;;;13.02;9.75;;;;;;;-143.10;100.00;50991.09;4839581;29;20497;-68
2022/06/21 05:19:53;;;;;;;13.75;10.85;;;;;;;-143.10;100.00;50996.97;4836906;29;20072;-68
2022/06/21 05:22:49;;;;;;;20.80;12.27;;;;;;;-143.10;100.00;51004.81;4835944;29;20066;-68
2022/06/21 05:25:41;;;;;;;17.58;13.77;;;;;;;-143.10;100.00;51000.91;4831854;29;20054;-67
2022/06/21 05:29:04;;;;;;;20.92;14.05;;;;;;;-143.10;100.00;50991.09;4835838;29;20153;-67
2022/06/21 05:32:04;;;;;;;17.05;14.23;;;;;;;-143.10;100.00;51028.31;4825586;29;20049;-68
2022/06/21 05:34:44;;;;;;;22.45;15.02;;;;;;;-143.10;100.00;50993.06;4836359;29;20148;-68
2022/06/21 05:37:37;;;;;;;20.15;14.02;;;;;;;-143.10;100.00;50991.09;4830348;29;20148;-68
2022/06/21 05:40:39;;;;;;;17.00;13.65;;;;;;;-143.10;100.00;50971.53;4853889;29;20057;-68
2022/06/21 05:43:38;;;;;;;18.45;14.07;;;;;;;-143.10;100.00;50998.94;4867172;29;20490;-68
2022/06/21 05:46:23;;;;;;;22.70;15.65;;;;;;;-143.10;100.00;51012.63;4854212;29;20303;-67
2022/06/21 05:49:31;;;;;;;27.73;15.10;;;;;;;-143.10;100.00;51022.44;4853225;29;20053;-66
2022/06/21 05:52:44;;;;;;;18.33;12.43;;;;;;;-143.10;100.00;50987.19;4868287;29;20065;-67
2022/06/21 05:55:39;;;;;;;15.15;10.85;;;;;;;-143.10;100.00;51045.91;4851669;29;20065;-68
2022/06/21 05:58:33;;;;;;;17.52;11.27;;;;;;;-143.10;100.00;50991.09;4830958;29;20437;-67
2022/06/21 06:02:07;;;;;;;16.33;11.90;;;;;;;-143.10;100.00;50987.19;4847351;29;20416;-68
2022/06/21 06:04:53;;;;;;;13.85;10.77;;;;;;;-143.10;100.00;51018.50;4837217;29;20045;-68
2022/06/21 06:07:48;;;;;;;15.68;11.52;;;;;;;-143.10;100.00;51012.63;4854382;29;20057;-68
2022/06/21 06:10:32;;;;;;;17.00;11.68;;;;;;;-143.10;100.00;51010.69;4854000;29;20080;-66
2022/06/21 06:13:35;;;;;;;17.70;12.57;;;;;;;-143.10;100.00;51028.31;4868056;29;20103;-68
2022/06/21 06:16:42;;;;;;;18.58;11.70;;;;;;;-143.10;100.00;51038.09;4850618;29;20073;-68
2022/06/21 06:19:55;;;;;;;16.08;10.93;;;;;;;-143.10;100.00;51045.91;4872242;29;20044;-68
2022/06/21 06:22:52;;;;;;;13.13;9.93;;;;;;;-143.10;100.00;51016.56;4872038;29;20742;-67
2022/06/21 06:25:53;;;;;;;15.82;10.35;;;;;;;-143.10;100.00;51022.44;4871960;29;20073;-68
2022/06/21 06:28:51;;;;;;;13.63;9.13;;;;;;;-143.10;100.00;51028.31;4871701;29;20083;-68
2022/06/21 06:32:00;;;;;;;15.23;10.73;;;;;;;-143.10;100.00;51030.25;4872065;29;20053;-68
2022/06/21 06:34:43;;;;;;;10.75;8.43;;;;;;;-143.10;100.00;51053.75;4868696;29;20149;-69
2022/06/21 06:37:46;;;;;;;;;;;;;;;-143.10;100.00;51020.47;4837750;29;20050;-68
2022/06/21 06:40:33;;;;;;;12.00;8.02;;;;;;;-143.10;100.00;51049.84;4853571;29;20014;-70
2022/06/21 06:43:58;;;;;;;9.98;6.85;;;;;;;-143.10;100.00;51040.03;4852496;29;20053;-69
2022/06/21 06:46:47;;;;;;;11.35;7.45;;;;;;;-143.10;100.00;51018.50;4853319;29;20061;-69
2022/06/21 06:49:47;;;;;;;25.52;14.35;;;;;;;-143.10;100.00;51014.59;4852092;29;20716;-68
2022/06/21 06:52:46;;;;;;;18.70;11.38;;;;;;;-143.10;100.00;51055.72;4848421;29;20050;-68
2022/06/21 06:55:48;;;;;;;10.65;8.80;;;;;;;-143.10;100.00;51030.25;4853078;29;20080;-68
2022/06/21 06:58:50;;;;;;;13.57;8.23;;;;;;;-143.10;100.00;51010.69;4848556;29;20148;-71
2022/06/21 07:01:57;;;;;;;13.68;7.78;;;;;;;-143.10;100.00;51018.50;4852783;29;20057;-68
2022/06/21 07:04:47;;;;;;;15.10;8.45;;;;;;;-143.10;100.00;51047.88;4848085;29;20156;-68
2022/06/21 07:07:52;;;;;;;10.88;8.50;;;;;;;-143.10;100.00;51038.09;4852719;29;20053;-68
2022/06/21 07:10:42;;;;;;;12.50;8.48;;;;;;;-143.10;100.00;51034.19;4852878;29;20398;-68
2022/06/21 07:13:33;;;;;;;11.18;9.13;;;;;;;-143.10;100.00;51045.91;4852258;29;20053;-67
2022/06/21 07:16:27;;;;;;;12.45;8.65;;;;;;;-143.10;100.00;51079.19;4845990;29;20144;-68
2022/06/21 07:19:22;;;;;;;14.07;8.98;;;;;;;-143.10;100.00;51067.47;4852154;29;20069;-68
2022/06/21 07:22:24;;;;;;;16.55;9.65;;;;;;;-143.10;100.00;51049.84;4852549;29;20061;-68
2022/06/21 07:25:27;;;;;;;15.73;10.25;;;;;;;-143.10;100.00;51022.44;4852555;29;20077;-68
2022/06/21 07:28:34;;;;;;;17.55;11.15;;;;;;;-143.10;100.00;51018.50;4852514;29;20049;-68
2022/06/21 07:31:42;;;;;;;16.75;11.45;;;;;;;-143.10;100.00;51006.75;4851688;29;20050;-68
2022/06/21 07:34:29;;;;;;;14.65;11.98;;;;;;;-143.10;100.00;51012.63;4852004;29;20057;-68
2022/06/21 07:37:20;;;;;;;16.48;12.43;;;;;;;-143.10;100.00;51014.59;4828830;29;20114;-67
2022/06/21 07:40:20;;;;;;;17.58;12.98;;;;;;;-143.10;100.00;51014.59;4833750;29;20060;-68
2022/06/21 07:43:21;;;;;;;19.38;13.57;;;;;;;-143.10;100.00;51026.34;4833269;29;20054;-68
2022/06/21 07:46:15;;;;;;;20.45;13.25;;;;;;;-143.10;100.00;51032.22;4833334;29;20491;-69
2022/06/21 07:49:43;;;;;;;20.05;14.60;;;;;;;-143.10;100.00;51053.75;4848375;29;20049;-67
2022/06/21 07:52:39;;;;;;;18.80;14.48;;;;;;;-143.10;100.00;51014.59;4847150;29;20057;-68
2022/06/21 07:55:38;;;;;;;22.20;14.25;;;;;;;-143.10;100.00;51002.84;4851924;29;20057;-67
2022/06/21 07:58:58;;;;;;;22.27;13.80;;;;;;;-143.10;100.00;51012.63;4851145;29;20472;-68
2022/06/21 08:08:22;;;;;;;22.83;13.32;;;;;;;-143.10;100.00;51038.09;4850914;29;20467;-68
2022/06/21 08:11:16;;;;;;;19.25;12.00;;;;;;;-143.10;100.00;51022.44;4835416;29;20058;-67
2022/06/21 08:14:05;;;;;;;15.13;10.85;;;;;;;-143.10;100.00;51006.75;4843594;29;20050;-68
2022/06/21 08:16:54;;;;;;;16.67;11.82;;;;;;;-143.10;96.78;51038.09;4838143;29;20199;-69
2022/06/21 08:20:01;;;;;;;16.77;11.15;;;;;;;-143.10;97.65;51026.34;4834112;29;20045;-68
2022/06/21 08:23:08;;;;;;;17.98;11.90;;;;;;;-143.10;94.74;50991.09;4833803;29;20108;-68
2022/06/21 08:26:03;;;;;;;18.35;11.65;;;;;;;-143.10;94.23;51020.47;4853967;29;20057;-67
2022/06/21 08:29:00;;;;;;;21.73;11.80;;;;;;;-143.10;94.77;51002.84;4853696;29;20126;-68
2022/06/21 08:31:56;;;;;;;15.85;12.05;;;;;;;-143.10;95.29;51002.84;4846934;29;20506;-67
2022/06/21 08:34:48;;;;;;;21.27;14.23;;;;;;;-143.10;94.15;50979.34;4850607;29;20140;-69
2022/06/21 08:38:02;;;;;;;26.45;14.40;;;;;;;-143.10;94.01;51004.81;4850629;29;20050;-68
2022/06/21 08:48:22;;;;;;;18.50;14.25;;;;;;;-143.10;91.72;51000.91;4851775;29;20050;-68
2022/06/21 08:51:11;;;;;;;19.50;14.10;;;;;;;-143.10;91.59;51065.50;4851400;29;20065;-67
2022/06/21 08:54:26;;;;;;;27.88;16.27;;;;;;;-143.10;93.11;50951.94;4852200;29;20137;-68
2022/06/21 08:57:26;;;;;;;25.42;16.80;;;;;;;-143.10;92.34;50998.94;4851378;29;20092;-68
2022/06/21 09:00:27;;;;;;;21.27;15.82;;;;;;;-143.10;93.24;51020.47;4844025;29;20359;-68
2022/06/21 09:03:27;;;;;;;23.63;16.35;;;;;;;-143.10;92.34;51038.09;4851685;29;20585;-68
2022/06/21 09:06:33;;;;;;;23.33;17.58;;;;;;;-143.10;93.01;50998.94;4851055;29;20076;-69
2022/06/21 09:10:00;;;;;;;21.02;16.48;;;;;;;-143.10;93.56;51026.34;4851945;29;20061;-68
2022/06/21 09:13:03;;;;;;;21.40;16.80;;;;;;;-143.10;91.05;51002.84;4855223;29;20053;-68
2022/06/21 09:16:23;;;;;;;21.45;16.40;;;;;;;-143.10;91.81;51004.81;4854048;29;20053;-68
2022/06/21 09:19:12;;;;;;;20.77;16.10;;;;;;;-143.10;90.77;51016.56;4855826;29;20164;-68
2022/06/21 09:22:24;;;;;;;21.75;15.63;;;;;;;-143.10;90.49;51014.59;4854104;29;20509;-69
2022/06/21 09:25:32;;;;;;;21.13;15.07;;;;;;;-143.10;91.47;51026.34;4869037;29;20101;-70
2022/06/21 09:28:44;;;;;;;25.20;15.55;;;;;;;-143.10;92.39;51020.47;4855033;29;20076;-69
2022/06/21 09:32:00;;;;;;;20.42;15.18;;;;;;;-143.10;91.79;51020.47;4854664;29;20061;-68
2022/06/21 09:34:50;;;;;;;19.85;14.88;;;;;;;-143.10;91.53;51030.25;4854887;29;20053;-69
2022/06/21 09:37:45;;;;;;;25.13;16.90;;;;;;;-143.10;92.41;51042.00;4854555;29;20049;-69
2022/06/21 09:40:39;;;;;;;22.40;15.88;;;;;;;-143.10;91.13;50991.09;4854735;29;20125;-69
2022/06/21 09:43:35;;;;;;;21.08;14.95;;;;;;;-143.10;92.80;51018.50;4853142;29;20057;-67
2022/06/21 09:46:24;;;;;;;20.30;15.30;;;;;;;-143.10;91.72;51057.66;4854029;29;20086;-67
2022/06/21 09:49:36;;;;;;;20.73;16.08;;;;;;;-143.10;92.53;51057.66;4866711;29;20077;-67
2022/06/21 09:52:35;;;;;;;20.00;16.10;;;;;;;-143.10;93.18;51042.00;4853431;29;20485;-68
2022/06/21 09:55:53;;;;;;;25.60;16.38;;;;;;;-143.10;95.28;51018.50;4854474;29;20053;-67
2022/06/21 09:59:02;;;;;;;27.48;19.48;;;;;;;-143.10;95.36;51053.75;4855204;29;20057;-67
2022/06/21 10:02:16;;;;;;;23.02;19.33;;;;;;;-143.10;95.69;51020.47;4854159;29;20184;-68
2022/06/21 10:05:10;;;;;;;24.77;19.98;;;;;;;-143.10;97.36;51034.19;4854445;29;20113;-68
2022/06/21 10:08:32;;;;;;;26.48;21.00;;;;;;;-143.10;100.00;51057.66;4854277;29;20446;-67
2022/06/21 10:11:28;;;;;;;29.63;22.83;;;;;;;-143.10;100.00;51034.19;4853621;29;20081;-68
2022/06/21 10:14:38;;;;;;;30.02;23.20;;;;;;;-143.10;100.00;51034.19;4853907;29;20057;-68
2022/06/21 10:17:43;;;;;;;26.65;22.75;;;;;;;-143.10;100.00;51020.47;4853753;29;20145;-68
2022/06/21 10:20:59;;;;;;;32.55;24.02;;;;;;;-143.10;100.00;51024.38;4854092;29;20053;-68
2022/06/21 10:23:58;;;;;;;30.45;23.00;;;;;;;-143.10;100.00;51061.59;4855176;29;20165;-69
2022/06/21 10:27:29;;;;;;;31.50;23.80;;;;;;;-143.10;100.00;51079.19;4853711;29;20060;-68
2022/06/21 10:30:44;;;;;;;30.15;23.52;;;;;;;-143.10;100.00;51026.34;4853290;29;20525;-67
2022/06/21 10:33:27;;;;;;;38.08;23.90;;;;;;;-143.10;100.00;51038.09;4847494;29;20113;-66
2022/06/21 10:36:22;;;;;;;34.90;23.75;;;;;;;-143.10;100.00;51036.13;4853511;29;20053;-68
2022/06/21 10:39:26;;;;;;;33.42;21.50;;;;;;;-143.10;100.00;51010.69;4853258;29;20096;-67
2022/06/21 10:42:47;;;;;;;35.20;24.77;;;;;;;-143.10;100.00;51030.25;4852639;29;20068;-68
2022/06/21 10:45:52;;;;;;;33.92;23.70;;;;;;;-143.10;100.00;51055.72;4853136;29;20045;-69
2022/06/21 10:48:59;;;;;;;28.60;22.38;;;;;;;-143.10;100.00;51057.66;4856490;29;20068;-68
2022/06/21 10:52:03;;;;;;;32.80;20.80;;;;;;;-143.10;100.00;51055.72;4871498;29;20045;-68
2022/06/21 10:55:22;;;;;;;23.52;16.80;;;;;;;-143.10;100.00;51024.38;4871965;29;20088;-68
2022/06/21 10:58:24;;;;;;;23.00;12.10;;;;;;;-143.10;99.46;51030.25;4865491;29;20056;-68
2022/06/21 11:01:32;;;;;;;17.40;9.13;;;;;;;-143.10;96.48;51034.19;4872366;29;20049;-69
2022/06/21 11:04:30;;;;;;;14.32;8.80;;;;;;;-143.10;96.04;51053.75;4870044;29;20076;-69
2022/06/21 11:07:14;;;;;;;14.48;6.50;;;;;;;-143.10;96.15;51006.75;4871474;29;20052;-69
2022/06/21 11:10:19;;;;;;;10.80;5.75;;;;;;;-143.10;95.05;51065.50;4872213;29;20084;-68
2022/06/21 11:13:14;;;;;;;;;;;;;;;-143.10;96.72;51045.91;4872145;29;20120;-68
2022/06/21 11:16:15;;;;;;;11.48;5.75;;;;;;;-143.10;97.37;51040.03;4871517;29;19939;-67
2022/06/21 11:19:28;;;;;;;9.20;5.72;;;;;;;-143.10;96.69;51047.88;4873851;29;20064;-70
2022/06/21 11:22:31;;;;;;;10.88;5.32;;;;;;;-143.10;97.34;51067.47;4847789;29;20218;-68
2022/06/21 11:25:18;;;;;;;12.90;5.60;;;;;;;-143.10;100.00;51063.53;4851992;29;20104;-68
2022/06/21 11:28:09;;;;;;;12.15;6.30;;;;;;;-143.10;100.00;51069.41;4853170;29;20062;-69
2022/06/21 11:31:28;;;;;;;11.70;6.60;;;;;;;-143.10;100.00;51030.25;4852693;29;20061;-67
2022/06/21 11:34:33;;;;;;;13.80;6.32;;;;;;;-143.10;100.00;51053.75;4852399;29;20057;-67
2022/06/21 11:37:16;;;;;;;11.88;6.60;;;;;;;-143.10;100.00;51049.84;4845212;29;20486;-68
2022/06/21 11:40:30;;;;;;;13.65;6.60;;;;;;;-143.10;100.00;51053.75;4839088;29;20145;-69
2022/06/21 11:43:28;;;;;;;13.90;7.15;;;;;;;-143.10;100.00;51038.09;4866830;29;20057;-68
2022/06/21 11:46:46;;;;;;;14.57;7.57;;;;;;;-143.10;100.00;51053.75;4851965;29;20363;-69
2022/06/21 11:49:49;;;;;;;14.68;9.43;;;;;;;-143.10;100.00;51034.19;4863034;29;25500;-68
2022/06/21 11:52:49;;;;;;;14.95;8.10;;;;;;;-143.10;100.00;51045.91;4870882;29;20061;-68
2022/06/21 11:56:21;;;;;;;13.02;9.50;;;;;;;-143.10;100.00;51065.50;4885604;29;20108;-68
2022/06/21 11:59:28;;;;;;;14.68;10.00;;;;;;;-143.10;100.00;51059.63;4869747;29;20359;-67
2022/06/21 12:02:35;;;;;;;15.88;10.73;;;;;;;-143.10;100.00;51089.00;4870755;29;20053;-68
2022/06/21 12:05:49;;;;;;;17.08;10.27;;;;;;;-143.10;100.00;51042.00;4870548;29;20148;-69
2022/06/21 12:09:07;;;;;;;17.83;10.95;;;;;;;-143.10;100.00;51057.66;4852200;29;20476;-68
2022/06/21 12:12:10;;;;;;;19.65;11.68;;;;;;;-143.10;100.00;51094.88;4870508;29;20065;-68
2022/06/21 12:15:20;;;;;;;22.40;12.90;;;;;;;-143.10;100.00;51049.84;4870735;29;20060;-68
2022/06/21 12:18:25;;;;;;;23.73;15.32;;;;;;;-143.10;100.00;51043.97;4870707;29;20049;-68
2022/06/21 12:21:25;;;;;;;27.67;15.07;;;;;;;-143.10;100.00;51061.59;4853763;29;20133;-68
2022/06/21 12:24:19;;;;;;;26.02;14.95;;;;;;;-143.10;100.00;51043.97;4843142;29;20056;-68
2022/06/21 12:27:09;;;;;;;23.88;16.65;;;;;;;-143.10;100.00;51063.53;4832550;29;20126;-68
2022/06/21 12:30:06;;;;;;;26.73;17.80;;;;;;;-143.10;100.00;51081.16;4834207;29;20050;-67
2022/06/21 12:33:07;;;;;;;29.42;19.15;;;;;;;-143.10;100.00;51061.59;4832812;29;20711;-69
2022/06/21 12:35:56;;;;;;;36.05;22.00;;;;;;;-143.10;100.00;51047.88;4833518;29;20084;-68
2022/06/21 12:38:58;;;;;;;25.40;18.58;;;;;;;-143.10;100.00;51085.06;4829861;29;20493;-69
2022/06/21 12:42:21;;;;;;;17.00;10.07;;;;;;;-143.10;100.00;51092.91;4833697;29;20070;-68
2022/06/21 12:45:25;;;;;;;16.05;7.60;;;;;;;-143.10;100.00;51108.56;4833952;29;20142;-69
2022/06/21 12:48:50;;;;;;;12.35;6.88;;;;;;;-143.10;100.00;51085.06;4843625;29;20140;-68
2022/06/21 12:51:56;;;;;;;13.60;6.22;;;;;;;-143.10;100.00;51089.00;4850662;29;20156;-68
2022/06/21 12:54:54;;;;;;;14.88;5.30;;;;;;;-143.10;100.00;51085.06;4851729;29;20061;-69
2022/06/21 12:58:01;;;;;;;11.18;5.03;;;;;;;-143.10;100.00;51069.41;4851223;29;20466;-69
2022/06/21 13:01:15;;;;;;;11.07;5.63;;;;;;;-143.10;100.00;51116.41;4855158;29;20049;-69
2022/06/21 13:04:23;;;;;;;11.02;5.32;;;;;;;-143.10;100.00;51043.97;4855424;29;20056;-68
2022/06/21 13:07:35;;;;;;;12.23;5.85;;;;;;;-143.10;100.00;51132.06;4854823;29;20053;-68
2022/06/21 13:10:38;;;;;;;8.77;4.93;;;;;;;-143.10;100.00;51100.75;4852119;29;20921;-69
2022/06/21 13:13:41;;;;;;;10.32;4.90;;;;;;;-143.10;100.00;51100.75;4835638;29;20053;-69
2022/06/21 13:16:47;;;;;;;11.75;4.22;;;;;;;-143.10;100.00;51104.66;4835990;29;20077;-69
2022/06/21 13:19:50;;;;;;;12.48;4.57;;;;;;;-143.10;100.00;51081.16;4836569;29;20549;-69
2022/06/21 13:23:03;;;;;;;15.75;5.25;;;;;;;-143.10;100.00;51100.75;4855152;29;20049;-70
2022/06/21 13:25:52;;;;;;;11.15;3.85;;;;;;;-143.10;100.00;51104.66;4854832;29;20121;-69
2022/06/21 13:29:15;;;;;;;11.43;5.25;;;;;;;-143.10;100.00;51126.19;4854893;29;20718;-69
2022/06/21 13:32:23;;;;;;;14.73;4.13;;;;;;;-143.10;100.00;51081.16;4814286;29;20166;-70
2022/06/21 13:35:33;;;;;;;11.52;3.97;;;;;;;-143.10;100.00;51114.44;4825801;29;20106;-69
2022/06/21 13:38:37;;;;;;;12.98;4.82;;;;;;;-143.10;100.00;51081.16;4860191;29;20109;-68
2022/06/21 13:44:59;;;;;;;12.60;5.47;;;;;;;-143.10;100.00;51106.63;4854595;29;20068;-69
2022/06/21 13:48:17;;;;;;;12.73;4.78;;;;;;;-143.10;100.00;51069.41;4854525;29;20041;-70